Terminal Aerodrome Forecast
Issued by NWS Wilmington, OH

Home | Current Version | Previous Version | Text Only | Print | Product List | Glossary On
Versions: 1 2 3 4 5 6 7 8 9 10 11 12 13 14 15 16 17 18 19 20 21
000
FTUS41 KILN 122300
TAFCVG
TAF
KCVG 122337Z 1300/1406 22006KT P6SM SCT045 BKN150 OVC200
     FM130200 19006KT P6SM BKN150
     FM131500 20012KT P6SM VCSH SCT040 BKN080
     FM131900 23012G19KT P6SM VCTS BKN040CB
     FM132300 25010KT 5SM -SHRA VCTS OVC040CB=

USA.gov is the U.S. government's official web portal to all federal, state and local government web resources and services.